createdAt,value
2022-10-26T00:02:52.319Z,100.00
2022-10-26T00:07:45.754Z,100.00
2022-10-26T00:12:36.107Z,100.00
2022-10-26T00:17:26.537Z,100.00
2022-10-26T00:22:17.531Z,100.00
2022-10-26T00:27:13.688Z,100.00
2022-10-26T00:32:04.386Z,100.00
2022-10-26T00:36:54.871Z,100.00
2022-10-26T00:41:46.162Z,100.00
2022-10-26T00:46:41.525Z,100.00
2022-10-26T00:51:36.203Z,100.00
2022-10-26T00:56:27.103Z,100.00
2022-10-26T01:01:18.441Z,100.00
2022-10-26T01:06:16.923Z,100.00
2022-10-26T01:11:08.619Z,100.00
2022-10-26T01:16:09.882Z,100.00
2022-10-26T01:21:47.621Z,100.00
2022-10-26T01:27:04.359Z,100.00
2022-10-26T01:32:03.483Z,100.00
2022-10-26T01:36:58.486Z,100.00
2022-10-26T01:41:51.920Z,100.00
2022-10-26T01:46:46.515Z,100.00
2022-10-26T01:51:41.647Z,100.00
2022-10-26T01:56:37.102Z,100.00
2022-10-26T02:01:44.447Z,100.00
2022-10-26T02:06:47.378Z,100.00
2022-10-26T02:11:43.669Z,100.00
2022-10-26T02:16:40.914Z,100.00
2022-10-26T02:21:38.874Z,100.00
2022-10-26T02:26:34.074Z,100.00
2022-10-26T02:31:27.575Z,100.00
2022-10-26T02:36:21.220Z,100.00
2022-10-26T02:41:13.882Z,100.00
2022-10-26T02:46:11.802Z,100.00
2022-10-26T02:51:06.359Z,100.00
2022-10-26T02:55:57.021Z,100.00
2022-10-26T03:00:49.059Z,100.00
2022-10-26T03:05:45.750Z,100.00
2022-10-26T03:10:37.067Z,100.00
2022-10-26T03:15:27.630Z,100.00
2022-10-26T03:20:18.447Z,100.00
2022-10-26T03:25:12.023Z,100.00
2022-10-26T03:30:08.488Z,100.00
2022-10-26T03:34:58.370Z,100.00
2022-10-26T03:39:48.210Z,100.00
2022-10-26T03:44:40.471Z,100.00
2022-10-26T03:49:31.265Z,100.00
2022-10-26T03:54:21.771Z,100.00
2022-10-26T03:59:11.454Z,100.00
2022-10-26T04:04:03.820Z,100.00
2022-10-26T04:08:58.276Z,100.00
2022-10-26T04:13:47.991Z,100.00
2022-10-26T04:18:37.705Z,100.00
2022-10-26T04:23:30.411Z,100.00
2022-10-26T04:28:20.447Z,100.00
2022-10-26T04:33:11.031Z,100.00
2022-10-26T04:38:02.405Z,100.00
2022-10-26T04:42:55.915Z,100.00
2022-10-26T04:47:46.226Z,100.00
2022-10-26T04:52:36.134Z,100.00
2022-10-26T04:57:25.769Z,100.00
2022-10-26T05:02:18.055Z,100.00
2022-10-26T05:07:07.975Z,100.00
2022-10-26T05:11:58.895Z,100.00
2022-10-26T05:16:48.801Z,100.00
2022-10-26T05:21:41.543Z,100.00
2022-10-26T05:26:34.746Z,100.00
2022-10-26T05:31:26.038Z,100.00
2022-10-26T05:36:16.676Z,100.00
2022-10-26T05:41:09.067Z,100.00
2022-10-26T05:45:58.919Z,100.00
2022-10-26T05:50:49.580Z,100.00
2022-10-26T05:55:41.892Z,100.00
2022-10-26T06:00:36.357Z,100.00
2022-10-26T06:05:30.371Z,100.00
2022-10-26T06:10:32.565Z,100.00
2022-10-26T06:15:24.899Z,100.00
2022-10-26T06:20:35.172Z,100.00
2022-10-26T06:25:32.650Z,100.00
2022-10-26T06:30:23.428Z,100.00
2022-10-26T06:35:25.745Z,100.00
2022-10-26T06:40:19.417Z,100.00
2022-10-26T06:50:38.029Z,100.00
2022-10-26T06:55:28.099Z,100.00
2022-10-26T07:00:23.218Z,100.00
2022-10-26T07:05:13.052Z,100.00
2022-10-26T07:10:07.152Z,100.00
2022-10-26T07:14:56.865Z,100.00
2022-10-26T07:19:46.540Z,100.00
2022-10-26T07:24:36.652Z,100.00
2022-10-26T07:29:30.088Z,100.00
2022-10-26T07:34:20.637Z,100.00
2022-10-26T07:39:10.905Z,100.00
2022-10-26T07:44:00.859Z,100.00
2022-10-26T07:48:53.363Z,100.00
2022-10-26T07:53:43.493Z,100.00
2022-10-26T07:58:33.474Z,100.00
2022-10-26T08:03:24.244Z,100.00
2022-10-26T08:08:16.927Z,100.00
2022-10-26T08:13:06.723Z,100.00
2022-10-26T08:17:56.374Z,100.00
2022-10-26T08:22:46.495Z,100.00
2022-10-26T08:27:43.010Z,100.00
2022-10-26T08:32:32.874Z,100.00
2022-10-26T08:37:22.945Z,100.00
2022-10-26T08:42:20.022Z,100.00
2022-10-26T08:52:10.166Z,100.00
2022-10-26T08:57:03.002Z,100.00
2022-10-26T09:01:52.700Z,100.00
2022-10-26T09:06:58.943Z,100.00
2022-10-26T09:12:03.567Z,100.00
2022-10-26T09:17:08.469Z,100.00
2022-10-26T09:22:10.103Z,100.00
2022-10-26T09:32:20.661Z,100.00
2022-10-26T09:37:21.359Z,100.00
2022-10-26T09:42:19.160Z,100.00
2022-10-26T09:47:17.171Z,100.00
2022-10-26T09:52:07.093Z,100.00
2022-10-26T09:57:02.931Z,100.00
2022-10-26T10:01:55.743Z,100.00
2022-10-26T10:06:46.659Z,100.00
2022-10-26T10:11:41.906Z,100.00
2022-10-26T10:16:34.198Z,100.00
2022-10-26T10:21:24.533Z,100.00
2022-10-26T10:26:14.383Z,100.00
2022-10-26T10:31:07.216Z,100.00
2022-10-26T10:36:00.622Z,100.00
2022-10-26T10:40:56.385Z,100.00
2022-10-26T10:45:52.001Z,100.00
2022-10-26T10:50:55.191Z,100.00
2022-10-26T10:56:14.163Z,100.00
2022-10-26T11:01:04.931Z,100.00
2022-10-26T11:06:09.458Z,100.00
2022-10-26T11:11:08.347Z,100.00
2022-10-26T11:16:03.567Z,100.00
2022-10-26T11:21:00.503Z,100.00
2022-10-26T11:25:56.384Z,100.00
2022-10-26T11:30:52.666Z,100.00
2022-10-26T11:35:49.139Z,100.00
2022-10-26T11:40:45.211Z,100.00
2022-10-26T11:45:40.477Z,100.00
2022-10-26T11:50:38.744Z,100.00
2022-10-26T11:55:28.768Z,100.00
2022-10-26T12:00:20.881Z,100.00
2022-10-26T12:05:21.944Z,100.00
2022-10-26T12:10:25.062Z,100.00
2022-10-26T12:15:30.964Z,100.00
2022-10-26T12:21:05.297Z,100.00
2022-10-26T12:26:32.338Z,100.00
2022-10-26T12:31:44.212Z,100.00
2022-10-26T12:36:52.482Z,99.55
2022-10-26T12:41:59.251Z,98.85
2022-10-26T12:46:48.989Z,98.29
2022-10-26T12:51:45.881Z,97.89
2022-10-26T12:56:44.827Z,96.09
2022-10-26T13:01:53.272Z,95.61
2022-10-26T13:07:12.223Z,94.19
2022-10-26T13:12:05.359Z,94.44
2022-10-26T13:16:58.141Z,94.22
2022-10-26T13:21:51.687Z,94.16
2022-10-26T13:27:28.958Z,94.22
2022-10-26T13:32:22.352Z,94.62
2022-10-26T13:37:22.964Z,94.32
2022-10-26T13:42:18.447Z,93.93
2022-10-26T13:47:13.597Z,93.40
2022-10-26T13:52:08.900Z,93.51
2022-10-26T13:57:07.073Z,93.79
2022-10-26T14:02:09.211Z,94.33
2022-10-26T14:06:58.943Z,94.61
2022-10-26T14:11:55.418Z,94.92
2022-10-26T14:16:46.658Z,95.78
2022-10-26T14:21:36.371Z,96.34
2022-10-26T14:26:28.534Z,96.78
2022-10-26T14:31:30.696Z,98.23
2022-10-26T14:36:22.778Z,98.77
2022-10-26T14:41:13.487Z,99.06
2022-10-26T14:46:03.285Z,98.95
2022-10-26T14:51:12.132Z,98.28
2022-10-26T14:56:04.583Z,97.86
2022-10-26T15:01:19.225Z,98.18
2022-10-26T15:06:46.245Z,99.19
2022-10-26T15:11:44.900Z,99.62
2022-10-26T15:16:37.759Z,99.59
2022-10-26T15:21:33.820Z,100.00
2022-10-26T15:26:27.370Z,100.00
2022-10-26T15:31:35.722Z,100.00
2022-10-26T15:36:31.223Z,100.00
2022-10-26T15:41:28.650Z,100.00
2022-10-26T15:46:20.767Z,100.00
2022-10-26T15:51:16.167Z,100.00
2022-10-26T15:56:12.451Z,100.00
2022-10-26T16:01:08.014Z,100.00
2022-10-26T16:06:01.401Z,100.00
2022-10-26T16:10:51.183Z,100.00
2022-10-26T16:15:41.191Z,100.00
2022-10-26T16:20:34.225Z,100.00
2022-10-26T16:25:26.035Z,100.00
2022-10-26T16:30:16.758Z,100.00
2022-10-26T16:35:06.823Z,100.00
2022-10-26T16:40:00.033Z,100.00
2022-10-26T16:44:51.040Z,100.00
2022-10-26T16:49:43.656Z,100.00
2022-10-26T16:54:36.941Z,100.00
2022-10-26T16:59:29.462Z,100.00
2022-10-26T17:04:20.276Z,100.00
2022-10-26T17:09:10.810Z,100.00
2022-10-26T17:14:01.275Z,100.00
2022-10-26T17:18:54.833Z,100.00
2022-10-26T17:23:45.791Z,100.00
2022-10-26T17:28:36.711Z,100.00
2022-10-26T17:33:28.230Z,100.00
2022-10-26T17:38:21.636Z,100.00
2022-10-26T17:43:11.457Z,100.00
2022-10-26T17:48:01.790Z,100.00
2022-10-26T17:52:52.007Z,100.00
2022-10-26T17:57:44.704Z,100.00
2022-10-26T18:02:37.459Z,100.00
2022-10-26T18:07:27.315Z,100.00
2022-10-26T18:12:16.695Z,100.00
2022-10-26T18:17:08.614Z,100.00
2022-10-26T18:21:59.001Z,100.00
2022-10-26T18:26:48.461Z,100.00
2022-10-26T18:31:38.429Z,100.00
2022-10-26T18:36:31.384Z,100.00
2022-10-26T18:41:21.909Z,100.00
2022-10-26T18:46:15.109Z,100.00
2022-10-26T18:51:07.339Z,100.00
2022-10-26T18:56:02.411Z,100.00
2022-10-26T19:00:54.569Z,100.00
2022-10-26T19:05:44.859Z,100.00
2022-10-26T19:15:47.473Z,100.00
2022-10-26T19:20:38.723Z,100.00
2022-10-26T19:25:28.436Z,100.00
2022-10-26T19:30:18.484Z,100.00
2022-10-26T19:35:11.181Z,100.00
2022-10-26T19:40:01.108Z,100.00
2022-10-26T19:44:51.180Z,100.00
2022-10-26T19:49:41.780Z,100.00
2022-10-26T19:54:35.090Z,100.00
2022-10-26T19:59:24.539Z,100.00
2022-10-26T20:04:14.102Z,100.00
2022-10-26T20:09:03.537Z,100.00
2022-10-26T20:13:56.567Z,100.00
2022-10-26T20:18:48.895Z,100.00
2022-10-26T20:23:38.737Z,100.00
2022-10-26T20:28:28.150Z,100.00
2022-10-26T20:33:20.679Z,100.00
2022-10-26T20:38:18.461Z,100.00
2022-10-26T20:43:08.934Z,100.00
2022-10-26T20:47:59.246Z,100.00
2022-10-26T20:52:58.327Z,100.00
2022-10-26T20:57:55.501Z,100.00
2022-10-26T21:02:45.368Z,100.00
2022-10-26T21:07:36.575Z,100.00
2022-10-26T21:12:29.411Z,100.00
2022-10-26T21:17:19.579Z,100.00
2022-10-26T21:22:09.079Z,100.00
2022-10-26T21:26:58.562Z,100.00
2022-10-26T21:31:50.973Z,100.00
2022-10-26T21:36:40.505Z,100.00
2022-10-26T21:41:39.634Z,100.00
2022-10-26T21:46:32.413Z,100.00
2022-10-26T21:51:24.600Z,100.00
2022-10-26T21:56:15.311Z,100.00
2022-10-26T22:01:08.793Z,100.00
2022-10-26T22:05:58.735Z,100.00
2022-10-26T22:10:50.948Z,100.00
2022-10-26T22:15:40.323Z,100.00
2022-10-26T22:20:29.819Z,100.00
2022-10-26T22:25:19.343Z,100.00
2022-10-26T22:30:13.362Z,100.00
2022-10-26T22:35:11.239Z,100.00
2022-10-26T22:40:13.160Z,100.00
2022-10-26T22:45:02.583Z,100.00
2022-10-26T22:49:54.988Z,100.00
2022-10-26T22:54:47.811Z,100.00
2022-10-26T22:59:37.579Z,100.00
2022-10-26T23:04:28.092Z,100.00
2022-10-26T23:09:20.173Z,100.00
2022-10-26T23:14:10.233Z,100.00
2022-10-26T23:19:00.527Z,100.00
2022-10-26T23:23:49.951Z,100.00
2022-10-26T23:28:42.319Z,100.00
2022-10-26T23:33:31.682Z,100.00
2022-10-26T23:38:21.339Z,100.00
2022-10-26T23:43:10.728Z,100.00
2022-10-26T23:48:02.790Z,100.00
2022-10-26T23:52:52.242Z,100.00
2022-10-26T23:57:41.991Z,100.00
